createdAt,value
2022-12-27T00:01:20.338Z,7.30
2022-12-27T00:06:25.138Z,8.87
2022-12-27T00:11:30.125Z,9.20
2022-12-27T00:16:34.340Z,7.80
2022-12-27T00:21:37.028Z,9.50
2022-12-27T00:26:41.009Z,6.53
2022-12-27T00:31:43.697Z,6.90
2022-12-27T00:36:46.483Z,6.73
2022-12-27T00:41:49.423Z,6.30
2022-12-27T00:46:51.972Z,5.07
2022-12-27T00:51:54.510Z,5.07
2022-12-27T00:56:57.024Z,5.27
2022-12-27T01:01:59.772Z,4.87
2022-12-27T01:07:02.476Z,4.90
2022-12-27T01:12:05.406Z,4.57
2022-12-27T01:17:08.010Z,5.73
2022-12-27T01:22:10.673Z,4.43
2022-12-27T01:27:13.215Z,3.63
2022-12-27T01:32:15.777Z,6.00
2022-12-27T01:37:18.338Z,6.70
2022-12-27T01:42:39.413Z,3.67
2022-12-27T01:48:12.337Z,4.97
2022-12-27T01:53:29.938Z,4.97
2022-12-27T01:58:38.743Z,2.77
2022-12-27T02:03:48.539Z,4.03
2022-12-27T02:09:09.355Z,5.23
2022-12-27T02:14:13.933Z,3.23
2022-12-27T02:19:42.688Z,5.60
2022-12-27T02:25:12.677Z,4.53
2022-12-27T02:30:15.804Z,5.67
2022-12-27T02:35:40.507Z,6.80
2022-12-27T02:41:06.152Z,6.27
2022-12-27T02:46:35.303Z,5.97
2022-12-27T02:52:14.638Z,6.13
2022-12-27T02:57:22.886Z,6.73
2022-12-27T03:03:15.595Z,6.33
2022-12-27T03:08:31.225Z,9.47
2022-12-27T03:14:16.017Z,9.13
2022-12-27T03:19:40.951Z,6.57
2022-12-27T03:25:01.945Z,8.60
2022-12-27T03:30:27.371Z,13.30
2022-12-27T03:35:34.686Z,10.37
2022-12-27T03:41:01.898Z,9.00
2022-12-27T03:46:35.208Z,10.27
2022-12-27T03:51:43.301Z,8.53
2022-12-27T03:56:46.108Z,9.70
2022-12-27T04:01:48.699Z,13.37
2022-12-27T04:06:51.452Z,11.43
2022-12-27T04:12:12.755Z,8.27
2022-12-27T04:17:33.834Z,8.52
2022-12-27T04:22:56.510Z,21.73
2022-12-27T04:28:17.683Z,9.85
2022-12-27T04:33:38.938Z,9.90
2022-12-27T04:38:41.460Z,9.77
2022-12-27T04:44:02.535Z,9.47
2022-12-27T04:49:23.879Z,7.47
2022-12-27T04:54:45.192Z,10.90
2022-12-27T05:00:06.364Z,11.88
2022-12-27T05:05:10.081Z,12.82
2022-12-27T05:10:31.211Z,13.47
2022-12-27T05:15:33.765Z,12.93
2022-12-27T05:20:36.347Z,13.23
2022-12-27T05:25:43.405Z,10.97
2022-12-27T05:30:46.036Z,12.23
2022-12-27T05:35:48.659Z,14.07
2022-12-27T05:40:51.189Z,13.73
2022-12-27T05:45:54.648Z,16.63
2022-12-27T05:50:57.293Z,14.03
2022-12-27T05:56:00.913Z,15.30
2022-12-27T06:01:09.378Z,17.53
2022-12-27T06:06:12.250Z,16.17
2022-12-27T06:11:17.975Z,13.83
2022-12-27T06:16:22.578Z,15.77
2022-12-27T06:21:25.236Z,15.03
2022-12-27T06:26:29.800Z,15.90
2022-12-27T06:31:32.509Z,14.77
2022-12-27T06:36:35.067Z,14.90
2022-12-27T06:41:37.758Z,14.87
2022-12-27T06:46:40.299Z,12.97
2022-12-27T06:51:42.892Z,14.97
2022-12-27T06:56:45.462Z,14.27
2022-12-27T07:01:48.390Z,14.43
2022-12-27T07:06:51.076Z,12.83
2022-12-27T07:11:54.156Z,11.43
2022-12-27T07:16:56.799Z,17.07
2022-12-27T07:21:59.368Z,15.60
2022-12-27T07:27:02.422Z,13.00
2022-12-27T07:32:05.358Z,12.70
2022-12-27T07:37:07.963Z,12.43
2022-12-27T07:42:10.567Z,13.10
2022-12-27T07:47:13.463Z,15.17
2022-12-27T07:52:16.178Z,13.67
2022-12-27T07:57:18.880Z,18.47
2022-12-27T08:02:21.523Z,16.70
2022-12-27T08:07:25.692Z,15.53
2022-12-27T08:12:28.264Z,14.67
2022-12-27T08:17:30.878Z,13.93
2022-12-27T08:22:33.470Z,16.53
2022-12-27T08:27:36.165Z,12.87
2022-12-27T08:32:38.696Z,15.17
2022-12-27T08:37:41.305Z,12.57
2022-12-27T08:42:43.834Z,16.10
2022-12-27T08:47:46.372Z,14.80
2022-12-27T08:52:51.267Z,11.60
2022-12-27T08:58:01.372Z,15.70
2022-12-27T09:03:04.581Z,13.87
2022-12-27T09:08:07.936Z,19.37
2022-12-27T09:13:10.524Z,16.87
2022-12-27T09:18:13.649Z,16.53
2022-12-27T09:23:16.200Z,12.53
2022-12-27T09:28:20.212Z,13.43
2022-12-27T09:33:22.753Z,17.10
2022-12-27T09:38:25.416Z,13.57
2022-12-27T09:43:42.945Z,14.13
2022-12-27T09:48:47.112Z,13.97
2022-12-27T09:54:10.302Z,12.77
2022-12-27T09:59:28.221Z,14.30
2022-12-27T10:05:09.989Z,12.17
2022-12-27T10:10:26.446Z,11.73
2022-12-27T10:15:56.146Z,16.30
2022-12-27T10:21:21.928Z,17.80
2022-12-27T10:26:24.948Z,15.43
2022-12-27T10:31:28.564Z,17.00
2022-12-27T10:36:32.405Z,22.70
2022-12-27T10:42:12.586Z,15.37
2022-12-27T10:47:16.681Z,17.10
2022-12-27T10:52:24.491Z,16.33
2022-12-27T10:57:35.631Z,13.67
2022-12-27T11:03:03.424Z,15.25
2022-12-27T11:08:21.083Z,13.20
2022-12-27T11:13:23.693Z,12.80
2022-12-27T11:18:26.704Z,19.93
2022-12-27T11:23:36.181Z,16.97
2022-12-27T11:28:53.072Z,14.37
2022-12-27T11:33:59.337Z,12.83
2022-12-27T11:39:02.362Z,18.43
2022-12-27T11:44:26.874Z,15.30
2022-12-27T11:49:36.104Z,15.67
2022-12-27T11:54:45.231Z,14.83
2022-12-27T11:59:47.784Z,14.10
2022-12-27T12:05:21.710Z,15.30
2022-12-27T12:10:55.639Z,21.60
2022-12-27T12:16:17.874Z,17.37
2022-12-27T12:21:24.051Z,13.73
2022-12-27T12:26:31.650Z,16.53
2022-12-27T12:32:00.572Z,19.50
2022-12-27T12:37:38.130Z,18.97
2022-12-27T12:43:06.898Z,18.63
2022-12-27T12:48:39.981Z,15.30
2022-12-27T12:54:00.985Z,17.10
2022-12-27T12:59:17.534Z,14.30
2022-12-27T13:04:43.423Z,17.43
2022-12-27T13:09:54.853Z,16.87
2022-12-27T13:15:20.532Z,15.85
2022-12-27T13:20:32.177Z,15.70
2022-12-27T13:26:01.307Z,15.75
2022-12-27T13:31:21.559Z,14.57
2022-12-27T13:36:42.600Z,16.90
2022-12-27T13:42:22.856Z,16.67
2022-12-27T13:47:50.712Z,14.73
2022-12-27T13:53:24.256Z,16.20
2022-12-27T13:58:27.569Z,18.30
2022-12-27T14:03:30.155Z,21.80
2022-12-27T14:08:57.066Z,20.80
2022-12-27T14:14:02.054Z,18.67
2022-12-27T14:19:58.823Z,17.47
2022-12-27T14:25:13.184Z,26.13
2022-12-27T14:30:21.744Z,21.80
2022-12-27T14:35:27.314Z,18.40
2022-12-27T14:40:34.464Z,18.80
2022-12-27T14:46:05.404Z,20.00
2022-12-27T14:57:03.653Z,22.17
2022-12-27T15:02:25.318Z,18.83
2022-12-27T15:07:55.503Z,25.63
2022-12-27T15:13:30.247Z,17.90
2022-12-27T15:18:45.377Z,22.43
2022-12-27T15:24:01.679Z,21.60
2022-12-27T15:29:35.276Z,20.45
2022-12-27T15:34:42.401Z,22.40
2022-12-27T15:39:47.319Z,19.38
2022-12-27T15:45:16.092Z,23.90
2022-12-27T15:50:30.733Z,21.23
2022-12-27T15:56:04.322Z,23.65
2022-12-27T16:01:23.650Z,21.40
2022-12-27T16:06:34.214Z,15.77
2022-12-27T16:11:58.485Z,22.98
2022-12-27T16:17:24.267Z,22.52
2022-12-27T16:22:36.515Z,23.70
2022-12-27T16:27:39.184Z,21.45
2022-12-27T16:32:48.576Z,21.27
2022-12-27T16:37:54.990Z,23.13
2022-12-27T16:43:17.681Z,22.73
2022-12-27T16:48:51.972Z,22.00
2022-12-27T16:54:31.344Z,26.95
2022-12-27T16:59:57.310Z,22.52
2022-12-27T17:05:00.999Z,23.33
2022-12-27T17:10:27.196Z,21.42
2022-12-27T17:15:31.663Z,24.77
2022-12-27T17:20:34.814Z,20.00
2022-12-27T17:25:48.764Z,22.85
2022-12-27T17:30:54.577Z,23.10
2022-12-27T17:36:21.834Z,20.90
2022-12-27T17:41:54.453Z,19.55
2022-12-27T17:47:37.213Z,23.38
2022-12-27T17:52:58.436Z,23.38
2022-12-27T17:58:03.953Z,21.27
2022-12-27T18:03:09.848Z,22.70
2022-12-27T18:08:28.291Z,22.88
2022-12-27T18:13:38.036Z,20.00
2022-12-27T18:18:40.801Z,22.35
2022-12-27T18:23:43.858Z,23.80
2022-12-27T18:28:48.182Z,21.63
2022-12-27T18:33:52.963Z,20.55
2022-12-27T18:39:18.287Z,23.08
2022-12-27T18:44:39.245Z,25.98
2022-12-27T18:49:42.386Z,22.20
2022-12-27T18:54:45.108Z,20.67
2022-12-27T19:00:00.972Z,19.65
2022-12-27T19:05:33.049Z,20.13
2022-12-27T19:10:36.046Z,18.38
2022-12-27T19:15:43.372Z,23.40
2022-12-27T19:20:54.150Z,21.63
2022-12-27T19:26:26.044Z,21.85
2022-12-27T19:31:29.234Z,21.70
2022-12-27T19:36:44.108Z,22.70
2022-12-27T19:41:48.417Z,20.75
2022-12-27T19:46:51.037Z,22.90
2022-12-27T19:51:56.283Z,20.58
2022-12-27T19:56:58.880Z,23.38
2022-12-27T20:02:01.624Z,24.13
2022-12-27T20:07:04.488Z,38.30
2022-12-27T20:12:09.595Z,26.33
2022-12-27T20:17:12.115Z,19.90
2022-12-27T20:22:14.651Z,20.63
2022-12-27T20:27:20.226Z,18.40
2022-12-27T20:32:22.993Z,19.40
2022-12-27T20:37:25.646Z,19.77
2022-12-27T20:42:28.294Z,24.77
2022-12-27T20:47:32.367Z,23.58
2022-12-27T20:52:38.599Z,20.02
2022-12-27T20:57:42.569Z,21.50
2022-12-27T21:02:45.644Z,16.88
2022-12-27T21:07:48.346Z,22.02
2022-12-27T21:12:50.888Z,18.73
2022-12-27T21:17:53.430Z,18.55
2022-12-27T21:22:56.044Z,35.20
2022-12-27T21:27:58.675Z,17.38
2022-12-27T21:33:01.345Z,17.42
2022-12-27T21:38:03.897Z,17.98
2022-12-27T21:43:06.456Z,16.15
2022-12-27T21:48:08.994Z,16.67
2022-12-27T21:53:11.990Z,18.75
2022-12-27T21:58:14.630Z,17.48
2022-12-27T22:03:17.442Z,14.52
2022-12-27T22:08:20.406Z,13.35
2022-12-27T22:13:23.394Z,15.02
2022-12-27T22:18:26.374Z,16.92
2022-12-27T22:23:38.487Z,14.73
2022-12-27T22:28:41.973Z,14.35
2022-12-27T22:33:44.920Z,13.93
2022-12-27T22:38:50.355Z,16.20
2022-12-27T22:43:56.217Z,14.15
2022-12-27T22:49:01.173Z,13.05
2022-12-27T22:54:05.265Z,12.30
2022-12-27T22:59:09.697Z,12.05
2022-12-27T23:04:13.858Z,11.30
2022-12-27T23:09:16.508Z,13.07
2022-12-27T23:14:19.074Z,18.42
2022-12-27T23:19:24.377Z,12.25
2022-12-27T23:24:26.926Z,12.68
2022-12-27T23:29:29.488Z,10.50
2022-12-27T23:34:32.154Z,18.15
2022-12-27T23:39:34.740Z,17.70
2022-12-27T23:44:37.355Z,12.60
2022-12-27T23:49:39.940Z,13.43
2022-12-27T23:54:42.466Z,11.43
2022-12-27T23:59:45.023Z,15.15
